Aviation Digital Data Service (ADDS)

Output produced by METARs form (0615 UTC 14 December 2018)
found at http://www.aviationweather.gov/metar/data/
 
RJTT 140600Z 34019KT 9999 FEW030 BKN060 09/M04 Q1020 NOSIG RMK 1CU030 6SC060 A3013
RJTT 140533Z 34018G28KT 9999 FEW030 BKN070 10/M05 Q1020 RMK 1CU030 5AC070 A3012
RJTT 140530Z 34016KT 9999 FEW030 BKN070 10/M05 Q1020 NOSIG RMK 1CU030 5AC070 A3012
TAF RJTT 140505Z 1406/1512 36020KT 9999 FEW030 SCT060 
     BECMG 1509/1512 36010KT
       
RJAA 140600Z 33015KT 9999 FEW030 BKN080 08/M08 Q1020 WS R34R TEMPO 32015G25KT
RJAA 140530Z 33014KT 9999 FEW035 SCT080 09/M07 Q1020 TEMPO 32015G25KT
TAF RJAA 140505Z 1406/1512 33014KT 9999 FEW030 
     TEMPO 1406/1408 33015G25KT
       
RJGG 140600Z 32023KT 9999 FEW030 SCT050 09/M00 Q1023 NOSIG
RJGG 140530Z 32026KT 9999 FEW030 BKN050 09/01 Q1023 NOSIG
TAF RJGG 140505Z 1406/1512 34022KT 9999 FEW020 SCT050
       
RJBB 140600Z 02011KT 9999 FEW025 BKN080 09/M00 Q1025 NOSIG
RJBB 140530Z 01015KT 9999 FEW025 09/M00 Q1025 NOSIG
TAF RJBB 140509Z 1406/1512 01012KT 9999 FEW020 SCT040
       
RJOO 140600Z 33011KT 9999 FEW025 SCT040 08/M01 Q1025 RMK 1CU025 3CU040 A3029
TAF RJOO 140507Z 1406/1512 33008KT 9999 FEW025 SCT045
       
RJFF 140600Z 33008KT 290V010 9999 FEW035 SCT045 09/M03 Q1028 NOSIG RMK 1CU035 3CU045 A3038
RJFF 140530Z 34007KT 310V050 9999 FEW035 SCT045 08/M03 Q1028 NOSIG RMK 1CU035 3CU045 A3037
TAF RJFF 140505Z 1406/1512 34009KT 9999 FEW030 BKN045 
     BECMG 1412/1414 13003KT 
     BECMG 1503/1506 35006KT 
     BECMG 1509/1512 13005KT
       
ROAH 140600Z 03012KT 360V070 9999 SCT045 21/09 Q1025 RMK 3SC045 A3027
ROAH 140530Z 02012KT 350V080 9999 SCT045 21/10 Q1025 RMK 3SC045 A3028
TAF ROAH 140506Z 1406/1512 04011KT 9999 FEW030 BKN040
       
RJCC 140600Z 34015KT 3500 -SHSN FEW005 SCT030 M02/M04 Q1018 RMK 1ST005 3CU030 A3009 9999W
RJCC 140541Z 34014KT 0900 R01L/P2000N R01R/P2000N SHSN VV009 M02/M04 Q1018 RMK A3008
RJCC 140530Z 34013KT 1400 R01L/2000N R01R/2000N -SHSN FEW003 SCT008 BKN012 M02/M03 Q1018
TAF RJCC 140505Z 1406/1512 33010KT 7000 -SHSN FEW005 BKN015 
     TEMPO 1406/1408 0700 SHSN VV005 
     TEMPO 1408/1411 2000 -SHSN FEW005 BKN008 
     TEMPO 1417/1421 3000 -SHSN 
     BECMG 1503/1506 19006KT
       
RJEC 140600Z 12003KT 110V180 8000 -SHSN FEW005 SCT020 BKN050 M05/M06 Q1016
TAF RJEC 140508Z 1406/1512 34005KT 9999 FEW008 BKN015 
     TEMPO 1406/1410 0700 SHSN VV005 
     TEMPO 1410/1414 1500 -SHSN 
     TEMPO 1418/1506 3000 -SHSN 
     BECMG 1506/1509 18007KT
       
RJCK 140600Z 02006KT 9999 FEW020 00/M08 Q1015
TAF RJCK 140511Z 1406/1512 34008KT 9999 FEW020 BKN030 
     BECMG 1421/1500 20008KT
       
RJSA 140600Z 26010KT 2500 R24/P1800N -SHSN FEW001 SCT003 BKN005 M03/M04 Q1020
RJSA 140546Z 25012G23KT 1000 R24/P1800N -SHSN FEW001 SCT003 BKN005 M03/M04 Q1020 RMK 2ST001 4ST003 6ST005 A3012 6000NW-N
RJSA 140540Z 25013KT 1000 R24/P1800N -SHSN FEW001 SCT003 BKN005 M03/M04 Q1020 RMK 2ST001 4ST003 6ST005 A3012
RJSA 140536Z 25013KT 0900 R06/0900V1800D SHSN FEW001 SCT003 BKN005 M03/M04 Q1020 RMK 2ST001 4ST003 6ST005 A3012
RJSA 140526Z 25012KT 1200 R24/1200VP1800U -SHSN FEW001 SCT003 BKN005 M03/M04 Q1020 RMK 2ST001 4ST003 6ST005 A3012
RJSA 140524Z 26013KT 1600 R24/1000VP1800U -SHSN FEW001 SCT003 BKN005 M03/M04 Q1020 RMK 1ST001 3ST003 6ST005 A3012
RJSA 140520Z 26014KT 1000 R24/1000VP1800D -SHSN FEW001 SCT002 BKN003 M03/M04 Q1020 RMK 2ST001 4ST002 6ST003 A3012
RJSA 140516Z 25014KT 0700 R24/1000VP1800D SHSN FEW001 SCT002 BKN003 M03/M04 Q1020 RMK 2ST001 4ST002 6ST003 A3012
TAF RJSA 140505Z 1406/1512 24010KT 6000 -SHSN FEW005 BKN015 BKN020 
     TEMPO 1406/1415 0500 SHSN VV003 
     TEMPO 1415/1500 0700 SHSN FEW003 BKN005 BKN008 
     TEMPO 1500/1509 1500 -SHSN FEW005 BKN008 BKN015 
     TEMPO 1509/1512 3000 -SHSN
       
RJSK 140600Z 33008KT 280V360 9999 FEW010 BKN040 BKN050 M01/M04 Q1021
TAF RJSK 140505Z 1406/1512 33008KT 6000 -SHSN FEW008 BKN015 BKN020 
     TEMPO 1406/1415 0700 SHSN FEW003 BKN005 BKN008 
     TEMPO 1415/1500 1500 -SHSN FEW005 BKN008 BKN015 
     TEMPO 1500/1512 3000 -SHSN 
     BECMG 1509/1512 14004KT
       
RJSN 140600Z 28019KT 9999 VCSH FEW015 SCT020 BKN030 04/M01 Q1025
RJSN 140532Z 28015G25KT 9999 -SHSN FEW015 SCT020 BKN030 04/M02 Q1025 RMK 2CU015 3CU020 6CU030 A3027
RJSN 140529Z 30015KT 9999 -SHSN FEW015 SCT020 BKN030 03/00 Q1025 RMK 2CU015 3CU020 6CU030 A3027
RJSN 140525Z 28025KT 9999 -SHSN FEW015 SCT020 BKN030 02/M00 Q1025 RMK 2CU015 3CU020 6CU030 A3027
RJSN 140520Z 31018KT 9999 -SHSNGS FEW015 SCT020 BKN030 04/M01 Q1024 RMK 1CU015 3CU020 6CU030 A3026 SNOW PELLETS
TAF RJSN 140506Z 1406/1512 29022KT 9999 FEW015 BKN025 
     TEMPO 1406/1412 28025G35KT 4000 -SHSNGS FEW015 BKN025 FEW025CB 
     TEMPO 1412/1415 30025G35KT 3000 -SHSN 
     TEMPO 1415/1421 2000 -SHSN FEW005 BKN008 
     TEMPO 1421/1506 3000 -SHSN
       
RJSF 140600Z 31015G32KT 270V350 9999 VCSH FEW030 SCT035 BKN045 02/M07 Q1020
TAF RJSF 140509Z 1406/1512 33010KT 9999 FEW020 BKN030
       
RJSS 140600Z 35008KT 320V020 9999 -SHSN FEW020 SCT030 BKN050 04/M00 Q1020
TAF RJSS 140511Z 1406/1512 32010KT 9999 FEW020 BKN040 
     TEMPO 1409/1418 2000 -SHSN
       
RJOK 140600Z 02013KT 9999 FEW035 SCT060 10/M03 Q1024
TAF RJOK 140505Z 1406/1512 34010KT 9999 FEW025 BKN050
       
RJOM 140600Z 31008KT 9999 FEW025 SCT040 BKN050 11/02 Q1026
TAF RJOM 140507Z 1406/1512 34007KT 9999 FEW025 SCT045 
     BECMG 1411/1413 12007KT 
     BECMG 1500/1503 36008KT 
     BECMG 1506/1509 12007KT
       
RJFO 140600Z 30012KT 260V340 9999 FEW025 BKN050 10/M00 Q1026
TAF RJFO 140506Z 1406/1512 30007KT 9999 FEW030 BKN045 
     BECMG 1416/1418 25004KT 
     BECMG 1500/1503 04007KT
       
RJFU 140600Z VRB09KT 9999 BKN040 10/M01 Q1028
TAF RJFU 140505Z 1406/1512 35010KT 9999 FEW030 
     BECMG 1416/1418 14005KT 
     BECMG 1500/1503 35006KT 
     BECMG 1506/1509 11006KT
       
RJFT 140600Z 33005KT 290V030 9999 FEW040 09/M04 Q1027
TAF RJFT 140505Z 1406/1512 32006KT 9999 FEW030 
     BECMG 1408/1410 01005KT 
     BECMG 1500/1503 28004KT 
     BECMG 1509/1512 09005KT
       
RJFK 140600Z 33012KT 9999 FEW030 BKN040 08/M01 Q1026 RMK 1CU030 6CU040 A3031 VOLCANIC ASH CLOUD S
TAF RJFK 140510Z 1406/1512 33011KT 9999 FEW040 BKN045 
     BECMG 1416/1418 03003KT 
     BECMG 1500/1503 13005KT 
     BECMG 1509/1512 05005KT
       
RJFM 140600Z 26007KT 230V300 9999 FEW050 13/M00 Q1025
TAF RJFM 140512Z 1406/1512 01004KT 9999 FEW030 
     BECMG 1407/1409 29011KT 
     BECMG 1500/1503 05006KT 
     BECMG 1509/1512 29005KT